sensor_id;sensor_type;location;lat;lon;timestamp;P1;durP1;ratioP1;P2;durP2;ratioP2
74851;SDS011;63400;50.650;6.832;2023-06-26T00:01:13;5.47;;;2.35;;
74851;SDS011;63400;50.650;6.832;2023-06-26T00:03:39;8.30;;;2.95;;
74851;SDS011;63400;50.650;6.832;2023-06-26T00:06:04;5.43;;;2.50;;
74851;SDS011;63400;50.650;6.832;2023-06-26T00:08:29;5.75;;;2.40;;
74851;SDS011;63400;50.650;6.832;2023-06-26T00:10:55;6.38;;;3.10;;
74851;SDS011;63400;50.650;6.832;2023-06-26T00:13:21;5.10;;;2.60;;
74851;SDS011;63400;50.650;6.832;2023-06-26T00:15:47;5.20;;;2.42;;
74851;SDS011;63400;50.650;6.832;2023-06-26T00:18:13;6.03;;;2.45;;
74851;SDS011;63400;50.650;6.832;2023-06-26T00:20:38;6.72;;;3.00;;
74851;SDS011;63400;50.650;6.832;2023-06-26T00:23:04;5.90;;;2.30;;
74851;SDS011;63400;50.650;6.832;2023-06-26T00:25:32;6.97;;;2.80;;
74851;SDS011;63400;50.650;6.832;2023-06-26T00:28:01;6.03;;;2.42;;
74851;SDS011;63400;50.650;6.832;2023-06-26T00:30:26;6.03;;;2.90;;
74851;SDS011;63400;50.650;6.832;2023-06-26T00:32:51;6.15;;;2.80;;
74851;SDS011;63400;50.650;6.832;2023-06-26T00:35:17;6.35;;;2.40;;
74851;SDS011;63400;50.650;6.832;2023-06-26T00:37:42;6.20;;;2.47;;
74851;SDS011;63400;50.650;6.832;2023-06-26T00:40:08;6.40;;;2.85;;
74851;SDS011;63400;50.650;6.832;2023-06-26T00:42:34;5.90;;;2.95;;
74851;SDS011;63400;50.650;6.832;2023-06-26T00:44:59;5.65;;;2.63;;
74851;SDS011;63400;50.650;6.832;2023-06-26T00:47:25;6.22;;;2.55;;
74851;SDS011;63400;50.650;6.832;2023-06-26T00:49:51;6.50;;;2.42;;
74851;SDS011;63400;50.650;6.832;2023-06-26T00:52:17;5.47;;;2.67;;
74851;SDS011;63400;50.650;6.832;2023-06-26T00:54:42;6.07;;;3.38;;
74851;SDS011;63400;50.650;6.832;2023-06-26T00:57:08;5.65;;;2.80;;
74851;SDS011;63400;50.650;6.832;2023-06-26T00:59:34;6.05;;;3.20;;
74851;SDS011;63400;50.650;6.832;2023-06-26T01:01:59;6.75;;;2.58;;
74851;SDS011;63400;50.650;6.832;2023-06-26T01:04:25;6.32;;;2.83;;
74851;SDS011;63400;50.650;6.832;2023-06-26T01:06:52;6.18;;;2.80;;
74851;SDS011;63400;50.650;6.832;2023-06-26T01:09:18;5.47;;;2.85;;
74851;SDS011;63400;50.650;6.832;2023-06-26T01:11:44;6.72;;;2.83;;
74851;SDS011;63400;50.650;6.832;2023-06-26T01:14:10;6.97;;;3.25;;
74851;SDS011;63400;50.650;6.832;2023-06-26T01:16:35;6.50;;;2.60;;
74851;SDS011;63400;50.650;6.832;2023-06-26T01:19:01;6.22;;;2.80;;
74851;SDS011;63400;50.650;6.832;2023-06-26T01:21:26;7.88;;;3.17;;
74851;SDS011;63400;50.650;6.832;2023-06-26T01:24:12;6.63;;;3.33;;
74851;SDS011;63400;50.650;6.832;2023-06-26T01:26:52;5.80;;;2.80;;
74851;SDS011;63400;50.650;6.832;2023-06-26T01:29:18;6.88;;;2.78;;
74851;SDS011;63400;50.650;6.832;2023-06-26T01:31:45;6.72;;;2.90;;
74851;SDS011;63400;50.650;6.832;2023-06-26T01:34:15;6.53;;;2.75;;
74851;SDS011;63400;50.650;6.832;2023-06-26T01:36:42;6.57;;;3.00;;
74851;SDS011;63400;50.650;6.832;2023-06-26T01:39:07;9.07;;;3.55;;
74851;SDS011;63400;50.650;6.832;2023-06-26T01:41:33;5.55;;;2.60;;
74851;SDS011;63400;50.650;6.832;2023-06-26T01:44:07;6.97;;;3.08;;
74851;SDS011;63400;50.650;6.832;2023-06-26T01:46:40;6.35;;;3.38;;
74851;SDS011;63400;50.650;6.832;2023-06-26T01:49:12;6.15;;;2.60;;
74851;SDS011;63400;50.650;6.832;2023-06-26T01:52:38;5.80;;;3.13;;
74851;SDS011;63400;50.650;6.832;2023-06-26T01:54:49;5.70;;;2.53;;
74851;SDS011;63400;50.650;6.832;2023-06-26T01:57:15;6.28;;;3.00;;
74851;SDS011;63400;50.650;6.832;2023-06-26T01:59:43;6.45;;;3.00;;
74851;SDS011;63400;50.650;6.832;2023-06-26T02:02:11;7.22;;;3.22;;
74851;SDS011;63400;50.650;6.832;2023-06-26T02:04:37;6.18;;;3.15;;
74851;SDS011;63400;50.650;6.832;2023-06-26T02:07:02;6.45;;;3.60;;
74851;SDS011;63400;50.650;6.832;2023-06-26T02:09:28;6.22;;;2.83;;
74851;SDS011;63400;50.650;6.832;2023-06-26T02:11:53;6.50;;;3.08;;
74851;SDS011;63400;50.650;6.832;2023-06-26T02:14:19;6.70;;;3.30;;
74851;SDS011;63400;50.650;6.832;2023-06-26T02:16:44;7.20;;;3.03;;
74851;SDS011;63400;50.650;6.832;2023-06-26T02:19:10;5.97;;;2.80;;
74851;SDS011;63400;50.650;6.832;2023-06-26T02:21:35;5.95;;;3.28;;
74851;SDS011;63400;50.650;6.832;2023-06-26T02:24:01;7.90;;;3.80;;
74851;SDS011;63400;50.650;6.832;2023-06-26T02:26:26;6.80;;;2.78;;
74851;SDS011;63400;50.650;6.832;2023-06-26T02:28:53;5.90;;;3.03;;
74851;SDS011;63400;50.650;6.832;2023-06-26T02:31:18;6.57;;;2.75;;
74851;SDS011;63400;50.650;6.832;2023-06-26T02:33:43;6.53;;;3.25;;
74851;SDS011;63400;50.650;6.832;2023-06-26T02:36:10;7.05;;;3.33;;
74851;SDS011;63400;50.650;6.832;2023-06-26T02:38:35;5.43;;;2.90;;
74851;SDS011;63400;50.650;6.832;2023-06-26T02:41:01;6.55;;;2.97;;
74851;SDS011;63400;50.650;6.832;2023-06-26T02:43:26;6.03;;;2.85;;
74851;SDS011;63400;50.650;6.832;2023-06-26T02:45:52;5.93;;;2.92;;
74851;SDS011;63400;50.650;6.832;2023-06-26T02:48:17;5.55;;;3.10;;
74851;SDS011;63400;50.650;6.832;2023-06-26T02:50:43;7.32;;;4.20;;
74851;SDS011;63400;50.650;6.832;2023-06-26T02:53:11;6.90;;;3.17;;
74851;SDS011;63400;50.650;6.832;2023-06-26T02:55:37;7.43;;;3.50;;
74851;SDS011;63400;50.650;6.832;2023-06-26T02:58:02;7.38;;;3.65;;
74851;SDS011;63400;50.650;6.832;2023-06-26T03:00:27;6.78;;;2.95;;
74851;SDS011;63400;50.650;6.832;2023-06-26T03:05:20;7.43;;;3.65;;
74851;SDS011;63400;50.650;6.832;2023-06-26T03:07:45;7.93;;;3.60;;
74851;SDS011;63400;50.650;6.832;2023-06-26T03:10:11;7.35;;;3.80;;
74851;SDS011;63400;50.650;6.832;2023-06-26T03:12:36;6.45;;;3.20;;
74851;SDS011;63400;50.650;6.832;2023-06-26T03:15:02;7.45;;;3.22;;
74851;SDS011;63400;50.650;6.832;2023-06-26T03:17:28;5.50;;;3.45;;
74851;SDS011;63400;50.650;6.832;2023-06-26T03:19:53;6.25;;;3.20;;
74851;SDS011;63400;50.650;6.832;2023-06-26T03:22:18;18.17;;;4.18;;
74851;SDS011;63400;50.650;6.832;2023-06-26T03:24:44;12.27;;;3.97;;
74851;SDS011;63400;50.650;6.832;2023-06-26T03:27:10;9.25;;;3.65;;
74851;SDS011;63400;50.650;6.832;2023-06-26T03:29:36;9.90;;;3.40;;
74851;SDS011;63400;50.650;6.832;2023-06-26T03:32:02;7.88;;;3.58;;
74851;SDS011;63400;50.650;6.832;2023-06-26T03:34:27;6.22;;;3.53;;
74851;SDS011;63400;50.650;6.832;2023-06-26T03:36:53;7.18;;;3.15;;
74851;SDS011;63400;50.650;6.832;2023-06-26T03:39:18;7.28;;;2.85;;
74851;SDS011;63400;50.650;6.832;2023-06-26T03:41:44;6.97;;;3.22;;
74851;SDS011;63400;50.650;6.832;2023-06-26T03:44:09;6.38;;;3.33;;
74851;SDS011;63400;50.650;6.832;2023-06-26T03:46:35;5.47;;;2.83;;
74851;SDS011;63400;50.650;6.832;2023-06-26T03:49:00;7.32;;;3.45;;
74851;SDS011;63400;50.650;6.832;2023-06-26T03:51:25;6.07;;;3.20;;
74851;SDS011;63400;50.650;6.832;2023-06-26T03:53:51;6.80;;;3.67;;
74851;SDS011;63400;50.650;6.832;2023-06-26T03:56:16;7.68;;;3.28;;
74851;SDS011;63400;50.650;6.832;2023-06-26T03:58:42;6.47;;;3.20;;
74851;SDS011;63400;50.650;6.832;2023-06-26T04:01:07;6.32;;;3.00;;
74851;SDS011;63400;50.650;6.832;2023-06-26T04:03:33;6.07;;;3.53;;
74851;SDS011;63400;50.650;6.832;2023-06-26T04:05:58;6.72;;;3.38;;
74851;SDS011;63400;50.650;6.832;2023-06-26T04:08:24;7.13;;;3.63;;
74851;SDS011;63400;50.650;6.832;2023-06-26T04:10:51;7.70;;;3.33;;
74851;SDS011;63400;50.650;6.832;2023-06-26T04:13:17;8.77;;;3.90;;
74851;SDS011;63400;50.650;6.832;2023-06-26T04:15:43;7.20;;;3.58;;
74851;SDS011;63400;50.650;6.832;2023-06-26T04:18:08;7.35;;;3.45;;
74851;SDS011;63400;50.650;6.832;2023-06-26T04:20:37;7.30;;;3.60;;
74851;SDS011;63400;50.650;6.832;2023-06-26T04:23:04;6.40;;;3.08;;
74851;SDS011;63400;50.650;6.832;2023-06-26T04:25:29;5.53;;;3.03;;
74851;SDS011;63400;50.650;6.832;2023-06-26T04:27:57;8.02;;;3.28;;
74851;SDS011;63400;50.650;6.832;2023-06-26T04:30:23;8.45;;;3.10;;
74851;SDS011;63400;50.650;6.832;2023-06-26T04:32:48;7.40;;;3.10;;
74851;SDS011;63400;50.650;6.832;2023-06-26T04:35:14;6.03;;;3.05;;
74851;SDS011;63400;50.650;6.832;2023-06-26T04:37:39;7.22;;;2.70;;
74851;SDS011;63400;50.650;6.832;2023-06-26T04:40:05;11.02;;;3.08;;
74851;SDS011;63400;50.650;6.832;2023-06-26T04:44:57;5.97;;;2.97;;
74851;SDS011;63400;50.650;6.832;2023-06-26T04:47:22;6.15;;;3.25;;
74851;SDS011;63400;50.650;6.832;2023-06-26T04:49:48;6.15;;;3.53;;
74851;SDS011;63400;50.650;6.832;2023-06-26T04:52:13;6.63;;;2.95;;
74851;SDS011;63400;50.650;6.832;2023-06-26T04:54:39;7.72;;;3.08;;
74851;SDS011;63400;50.650;6.832;2023-06-26T04:57:05;8.00;;;2.75;;
74851;SDS011;63400;50.650;6.832;2023-06-26T04:59:30;6.05;;;2.92;;
74851;SDS011;63400;50.650;6.832;2023-06-26T05:01:56;3.95;;;2.00;;
74851;SDS011;63400;50.650;6.832;2023-06-26T05:04:22;8.65;;;2.00;;
74851;SDS011;63400;50.650;6.832;2023-06-26T05:06:48;6.15;;;2.10;;
74851;SDS011;63400;50.650;6.832;2023-06-26T05:09:13;4.90;;;2.55;;
74851;SDS011;63400;50.650;6.832;2023-06-26T05:11:39;7.35;;;2.55;;
74851;SDS011;63400;50.650;6.832;2023-06-26T05:14:04;4.88;;;2.13;;
74851;SDS011;63400;50.650;6.832;2023-06-26T05:16:32;3.80;;;2.00;;
74851;SDS011;63400;50.650;6.832;2023-06-26T05:21:24;4.50;;;1.93;;
74851;SDS011;63400;50.650;6.832;2023-06-26T05:23:49;4.40;;;1.80;;
74851;SDS011;63400;50.650;6.832;2023-06-26T05:26:17;4.50;;;1.90;;
74851;SDS011;63400;50.650;6.832;2023-06-26T05:28:43;6.47;;;2.50;;
74851;SDS011;63400;50.650;6.832;2023-06-26T05:31:13;7.63;;;2.22;;
74851;SDS011;63400;50.650;6.832;2023-06-26T05:33:39;5.43;;;1.95;;
74851;SDS011;63400;50.650;6.832;2023-06-26T05:36:08;5.85;;;1.70;;
74851;SDS011;63400;50.650;6.832;2023-06-26T05:38:34;6.93;;;2.25;;
74851;SDS011;63400;50.650;6.832;2023-06-26T05:41:00;7.00;;;2.03;;
74851;SDS011;63400;50.650;6.832;2023-06-26T05:43:25;8.25;;;2.50;;
74851;SDS011;63400;50.650;6.832;2023-06-26T05:45:51;5.43;;;1.85;;
74851;SDS011;63400;50.650;6.832;2023-06-26T05:48:16;6.15;;;2.22;;
74851;SDS011;63400;50.650;6.832;2023-06-26T05:50:42;3.75;;;1.65;;
74851;SDS011;63400;50.650;6.832;2023-06-26T05:53:09;5.18;;;1.88;;
74851;SDS011;63400;50.650;6.832;2023-06-26T05:55:34;6.20;;;2.47;;
74851;SDS011;63400;50.650;6.832;2023-06-26T05:58:01;5.68;;;1.80;;
74851;SDS011;63400;50.650;6.832;2023-06-26T06:00:27;5.97;;;1.58;;
74851;SDS011;63400;50.650;6.832;2023-06-26T06:02:53;5.50;;;1.90;;
74851;SDS011;63400;50.650;6.832;2023-06-26T06:05:22;3.03;;;1.40;;
74851;SDS011;63400;50.650;6.832;2023-06-26T06:07:48;4.82;;;1.77;;
74851;SDS011;63400;50.650;6.832;2023-06-26T06:10:13;5.63;;;1.77;;
74851;SDS011;63400;50.650;6.832;2023-06-26T06:12:39;5.70;;;2.05;;
74851;SDS011;63400;50.650;6.832;2023-06-26T06:15:05;4.30;;;2.08;;
74851;SDS011;63400;50.650;6.832;2023-06-26T06:17:31;3.67;;;1.38;;
74851;SDS011;63400;50.650;6.832;2023-06-26T06:19:56;5.70;;;1.85;;
74851;SDS011;63400;50.650;6.832;2023-06-26T06:22:22;5.60;;;1.60;;
74851;SDS011;63400;50.650;6.832;2023-06-26T06:24:48;5.88;;;2.08;;
74851;SDS011;63400;50.650;6.832;2023-06-26T06:27:15;4.32;;;1.58;;
74851;SDS011;63400;50.650;6.832;2023-06-26T06:29:40;4.90;;;1.60;;
74851;SDS011;63400;50.650;6.832;2023-06-26T06:32:06;3.53;;;1.40;;
74851;SDS011;63400;50.650;6.832;2023-06-26T06:34:31;6.60;;;1.30;;
74851;SDS011;63400;50.650;6.832;2023-06-26T06:36:57;4.50;;;1.60;;
74851;SDS011;63400;50.650;6.832;2023-06-26T06:39:22;4.28;;;1.50;;
74851;SDS011;63400;50.650;6.832;2023-06-26T06:41:48;4.18;;;1.50;;
74851;SDS011;63400;50.650;6.832;2023-06-26T06:44:13;4.32;;;1.63;;
74851;SDS011;63400;50.650;6.832;2023-06-26T06:46:38;5.80;;;1.60;;
74851;SDS011;63400;50.650;6.832;2023-06-26T06:49:04;5.18;;;1.60;;
74851;SDS011;63400;50.650;6.832;2023-06-26T06:51:30;4.90;;;1.50;;
74851;SDS011;63400;50.650;6.832;2023-06-26T06:53:56;5.38;;;1.80;;
74851;SDS011;63400;50.650;6.832;2023-06-26T06:56:21;5.22;;;1.77;;
74851;SDS011;63400;50.650;6.832;2023-06-26T06:58:46;7.60;;;1.75;;
74851;SDS011;63400;50.650;6.832;2023-06-26T07:01:12;4.93;;;1.67;;
74851;SDS011;63400;50.650;6.832;2023-06-26T07:03:38;5.00;;;1.42;;
74851;SDS011;63400;50.650;6.832;2023-06-26T07:06:04;5.60;;;2.17;;
74851;SDS011;63400;50.650;6.832;2023-06-26T07:08:29;4.45;;;1.40;;
74851;SDS011;63400;50.650;6.832;2023-06-26T07:10:55;5.47;;;1.77;;
74851;SDS011;63400;50.650;6.832;2023-06-26T07:13:23;5.55;;;1.92;;
74851;SDS011;63400;50.650;6.832;2023-06-26T07:15:49;5.38;;;1.80;;
74851;SDS011;63400;50.650;6.832;2023-06-26T07:18:14;3.70;;;1.73;;
74851;SDS011;63400;50.650;6.832;2023-06-26T07:20:40;4.78;;;1.73;;
74851;SDS011;63400;50.650;6.832;2023-06-26T07:23:06;5.78;;;1.83;;
74851;SDS011;63400;50.650;6.832;2023-06-26T07:25:31;4.95;;;2.13;;
74851;SDS011;63400;50.650;6.832;2023-06-26T07:27:57;7.55;;;1.75;;
74851;SDS011;63400;50.650;6.832;2023-06-26T07:30:22;4.18;;;1.60;;
74851;SDS011;63400;50.650;6.832;2023-06-26T07:32:49;4.85;;;2.30;;
74851;SDS011;63400;50.650;6.832;2023-06-26T07:35:15;14.40;;;3.05;;
74851;SDS011;63400;50.650;6.832;2023-06-26T07:37:40;6.35;;;1.88;;
74851;SDS011;63400;50.650;6.832;2023-06-26T07:40:06;5.85;;;1.65;;
74851;SDS011;63400;50.650;6.832;2023-06-26T07:42:32;5.55;;;2.28;;
74851;SDS011;63400;50.650;6.832;2023-06-26T07:44:57;7.15;;;2.80;;
74851;SDS011;63400;50.650;6.832;2023-06-26T07:47:23;4.43;;;1.95;;
74851;SDS011;63400;50.650;6.832;2023-06-26T07:49:48;6.22;;;2.13;;
74851;SDS011;63400;50.650;6.832;2023-06-26T07:52:14;5.60;;;2.13;;
74851;SDS011;63400;50.650;6.832;2023-06-26T07:54:40;12.07;;;2.72;;
74851;SDS011;63400;50.650;6.832;2023-06-26T07:57:05;4.85;;;2.20;;
74851;SDS011;63400;50.650;6.832;2023-06-26T07:59:32;5.55;;;1.92;;
74851;SDS011;63400;50.650;6.832;2023-06-26T08:01:58;4.07;;;1.70;;
74851;SDS011;63400;50.650;6.832;2023-06-26T08:06:51;6.75;;;1.80;;
74851;SDS011;63400;50.650;6.832;2023-06-26T08:09:18;6.45;;;2.00;;
74851;SDS011;63400;50.650;6.832;2023-06-26T08:11:45;5.47;;;1.60;;
74851;SDS011;63400;50.650;6.832;2023-06-26T08:14:11;7.20;;;2.30;;
74851;SDS011;63400;50.650;6.832;2023-06-26T08:16:39;4.72;;;1.40;;
74851;SDS011;63400;50.650;6.832;2023-06-26T08:19:05;4.40;;;1.30;;
74851;SDS011;63400;50.650;6.832;2023-06-26T08:21:30;2.60;;;1.42;;
74851;SDS011;63400;50.650;6.832;2023-06-26T08:23:56;5.22;;;1.75;;
74851;SDS011;63400;50.650;6.832;2023-06-26T08:26:21;6.35;;;1.42;;
74851;SDS011;63400;50.650;6.832;2023-06-26T08:28:47;3.75;;;1.27;;
74851;SDS011;63400;50.650;6.832;2023-06-26T08:31:12;6.15;;;1.63;;
74851;SDS011;63400;50.650;6.832;2023-06-26T08:33:38;6.38;;;1.45;;
74851;SDS011;63400;50.650;6.832;2023-06-26T08:36:03;6.78;;;1.48;;
74851;SDS011;63400;50.650;6.832;2023-06-26T08:38:29;6.10;;;1.42;;
74851;SDS011;63400;50.650;6.832;2023-06-26T08:40:54;7.78;;;1.60;;
74851;SDS011;63400;50.650;6.832;2023-06-26T08:43:19;2.78;;;1.27;;
74851;SDS011;63400;50.650;6.832;2023-06-26T08:45:47;7.70;;;1.85;;
74851;SDS011;63400;50.650;6.832;2023-06-26T08:48:16;9.82;;;2.03;;
74851;SDS011;63400;50.650;6.832;2023-06-26T08:50:42;5.82;;;1.50;;
74851;SDS011;63400;50.650;6.832;2023-06-26T08:55:59;5.30;;;1.23;;
74851;SDS011;63400;50.650;6.832;2023-06-26T08:58:25;4.00;;;1.25;;
74851;SDS011;63400;50.650;6.832;2023-06-26T09:00:51;5.45;;;0.95;;
74851;SDS011;63400;50.650;6.832;2023-06-26T09:05:42;4.05;;;1.23;;
74851;SDS011;63400;50.650;6.832;2023-06-26T09:08:08;4.13;;;0.90;;
74851;SDS011;63400;50.650;6.832;2023-06-26T09:10:33;5.70;;;0.80;;
74851;SDS011;63400;50.650;6.832;2023-06-26T09:12:59;2.97;;;0.75;;
74851;SDS011;63400;50.650;6.832;2023-06-26T09:15:26;3.60;;;0.85;;
74851;SDS011;63400;50.650;6.832;2023-06-26T09:17:56;4.20;;;0.80;;
74851;SDS011;63400;50.650;6.832;2023-06-26T09:20:21;3.28;;;0.82;;
74851;SDS011;63400;50.650;6.832;2023-06-26T09:25:12;5.40;;;0.70;;
74851;SDS011;63400;50.650;6.832;2023-06-26T09:27:37;2.95;;;0.35;;
74851;SDS011;63400;50.650;6.832;2023-06-26T09:30:03;5.40;;;0.70;;
74851;SDS011;63400;50.650;6.832;2023-06-26T09:32:29;3.08;;;0.40;;
74851;SDS011;63400;50.650;6.832;2023-06-26T09:37:25;4.65;;;0.50;;
74851;SDS011;63400;50.650;6.832;2023-06-26T09:42:16;6.72;;;0.80;;
74851;SDS011;63400;50.650;6.832;2023-06-26T09:47:11;4.60;;;0.73;;
74851;SDS011;63400;50.650;6.832;2023-06-26T09:49:40;3.35;;;0.57;;
74851;SDS011;63400;50.650;6.832;2023-06-26T09:52:07;3.22;;;0.73;;
74851;SDS011;63400;50.650;6.832;2023-06-26T09:57:08;5.00;;;0.85;;
74851;SDS011;63400;50.650;6.832;2023-06-26T09:59:34;4.85;;;0.55;;
74851;SDS011;63400;50.650;6.832;2023-06-26T10:02:00;4.65;;;0.47;;
74851;SDS011;63400;50.650;6.832;2023-06-26T10:06:52;4.53;;;0.38;;
74851;SDS011;63400;50.650;6.832;2023-06-26T10:09:22;5.57;;;0.47;;
74851;SDS011;63400;50.650;6.832;2023-06-26T10:14:19;1.83;;;0.40;;
74851;SDS011;63400;50.650;6.832;2023-06-26T10:16:47;3.03;;;0.50;;
74851;SDS011;63400;50.650;6.832;2023-06-26T10:19:13;9.15;;;0.82;;
74851;SDS011;63400;50.650;6.832;2023-06-26T10:21:39;5.10;;;0.50;;
74851;SDS011;63400;50.650;6.832;2023-06-26T10:24:05;4.45;;;0.60;;
74851;SDS011;63400;50.650;6.832;2023-06-26T10:26:32;5.18;;;0.82;;
74851;SDS011;63400;50.650;6.832;2023-06-26T10:29:00;3.22;;;0.73;;
74851;SDS011;63400;50.650;6.832;2023-06-26T10:31:27;3.85;;;0.80;;
74851;SDS011;63400;50.650;6.832;2023-06-26T10:33:54;5.78;;;0.70;;
74851;SDS011;63400;50.650;6.832;2023-06-26T10:36:20;2.58;;;0.60;;
74851;SDS011;63400;50.650;6.832;2023-06-26T10:41:21;5.30;;;0.52;;
74851;SDS011;63400;50.650;6.832;2023-06-26T10:44:12;3.60;;;0.55;;
74851;SDS011;63400;50.650;6.832;2023-06-26T10:49:31;4.20;;;0.63;;
74851;SDS011;63400;50.650;6.832;2023-06-26T10:52:00;2.15;;;0.28;;
74851;SDS011;63400;50.650;6.832;2023-06-26T10:54:28;13.13;;;0.70;;
74851;SDS011;63400;50.650;6.832;2023-06-26T10:56:54;2.75;;;0.30;;
74851;SDS011;63400;50.650;6.832;2023-06-26T10:59:24;3.63;;;1.00;;
74851;SDS011;63400;50.650;6.832;2023-06-26T11:01:54;6.43;;;0.65;;
74851;SDS011;63400;50.650;6.832;2023-06-26T11:04:36;2.38;;;0.60;;
74851;SDS011;63400;50.650;6.832;2023-06-26T11:07:14;4.60;;;0.60;;
74851;SDS011;63400;50.650;6.832;2023-06-26T11:09:53;3.92;;;0.60;;
74851;SDS011;63400;50.650;6.832;2023-06-26T11:12:33;5.30;;;1.10;;
74851;SDS011;63400;50.650;6.832;2023-06-26T11:15:09;4.38;;;0.43;;
74851;SDS011;63400;50.650;6.832;2023-06-26T11:17:38;3.30;;;0.47;;
74851;SDS011;63400;50.650;6.832;2023-06-26T11:20:08;3.47;;;0.40;;
74851;SDS011;63400;50.650;6.832;2023-06-26T11:22:35;5.65;;;0.30;;
74851;SDS011;63400;50.650;6.832;2023-06-26T11:25:02;2.75;;;0.65;;
74851;SDS011;63400;50.650;6.832;2023-06-26T11:27:46;7.47;;;0.70;;
74851;SDS011;63400;50.650;6.832;2023-06-26T11:30:22;2.67;;;0.77;;
74851;SDS011;63400;50.650;6.832;2023-06-26T11:32:48;2.65;;;0.50;;
74851;SDS011;63400;50.650;6.832;2023-06-26T11:35:21;6.38;;;0.50;;
74851;SDS011;63400;50.650;6.832;2023-06-26T11:37:55;3.70;;;0.35;;
74851;SDS011;63400;50.650;6.832;2023-06-26T11:40:25;6.57;;;0.75;;
74851;SDS011;63400;50.650;6.832;2023-06-26T11:42:57;2.85;;;0.30;;
74851;SDS011;63400;50.650;6.832;2023-06-26T11:45:23;3.08;;;0.40;;
74851;SDS011;63400;50.650;6.832;2023-06-26T11:47:49;2.47;;;0.38;;
74851;SDS011;63400;50.650;6.832;2023-06-26T11:50:17;3.65;;;0.43;;
74851;SDS011;63400;50.650;6.832;2023-06-26T11:52:43;2.80;;;0.30;;
74851;SDS011;63400;50.650;6.832;2023-06-26T11:55:09;4.22;;;0.43;;
74851;SDS011;63400;50.650;6.832;2023-06-26T11:57:35;6.63;;;0.50;;
74851;SDS011;63400;50.650;6.832;2023-06-26T12:00:13;5.55;;;0.47;;
74851;SDS011;63400;50.650;6.832;2023-06-26T12:02:39;4.25;;;0.47;;
74851;SDS011;63400;50.650;6.832;2023-06-26T12:05:05;2.47;;;0.40;;
74851;SDS011;63400;50.650;6.832;2023-06-26T12:07:31;2.33;;;0.25;;
74851;SDS011;63400;50.650;6.832;2023-06-26T12:09:57;4.38;;;0.40;;
74851;SDS011;63400;50.650;6.832;2023-06-26T12:12:23;9.10;;;1.17;;
74851;SDS011;63400;50.650;6.832;2023-06-26T12:14:49;3.40;;;0.50;;
74851;SDS011;63400;50.650;6.832;2023-06-26T12:17:16;3.40;;;0.52;;
74851;SDS011;63400;50.650;6.832;2023-06-26T12:19:45;3.55;;;0.55;;
74851;SDS011;63400;50.650;6.832;2023-06-26T12:22:14;3.65;;;0.45;;
74851;SDS011;63400;50.650;6.832;2023-06-26T12:24:40;4.88;;;0.47;;
74851;SDS011;63400;50.650;6.832;2023-06-26T12:27:18;1.90;;;0.28;;
74851;SDS011;63400;50.650;6.832;2023-06-26T12:29:51;3.90;;;0.43;;
74851;SDS011;63400;50.650;6.832;2023-06-26T12:32:18;5.72;;;0.45;;
74851;SDS011;63400;50.650;6.832;2023-06-26T12:34:46;4.05;;;0.43;;
74851;SDS011;63400;50.650;6.832;2023-06-26T12:37:14;4.63;;;0.50;;
74851;SDS011;63400;50.650;6.832;2023-06-26T12:42:25;3.65;;;0.22;;
74851;SDS011;63400;50.650;6.832;2023-06-26T12:44:51;3.53;;;0.60;;
74851;SDS011;63400;50.650;6.832;2023-06-26T12:49:44;4.07;;;0.68;;
74851;SDS011;63400;50.650;6.832;2023-06-26T12:52:14;3.53;;;0.45;;
74851;SDS011;63400;50.650;6.832;2023-06-26T12:54:40;3.55;;;0.60;;
74851;SDS011;63400;50.650;6.832;2023-06-26T12:57:07;3.20;;;0.77;;
74851;SDS011;63400;50.650;6.832;2023-06-26T12:59:33;6.60;;;0.57;;
74851;SDS011;63400;50.650;6.832;2023-06-26T13:01:59;7.45;;;0.80;;
74851;SDS011;63400;50.650;6.832;2023-06-26T13:04:25;4.03;;;0.22;;
74851;SDS011;63400;50.650;6.832;2023-06-26T13:06:51;5.07;;;0.93;;
74851;SDS011;63400;50.650;6.832;2023-06-26T13:09:19;2.92;;;0.65;;
74851;SDS011;63400;50.650;6.832;2023-06-26T13:11:45;5.22;;;0.70;;
74851;SDS011;63400;50.650;6.832;2023-06-26T13:14:11;7.40;;;0.60;;
74851;SDS011;63400;50.650;6.832;2023-06-26T13:16:36;10.55;;;0.95;;
74851;SDS011;63400;50.650;6.832;2023-06-26T13:19:02;5.30;;;0.40;;
74851;SDS011;63400;50.650;6.832;2023-06-26T13:21:28;5.05;;;0.82;;
74851;SDS011;63400;50.650;6.832;2023-06-26T13:23:53;3.45;;;0.70;;
74851;SDS011;63400;50.650;6.832;2023-06-26T13:26:20;4.30;;;0.60;;
74851;SDS011;63400;50.650;6.832;2023-06-26T13:28:47;2.60;;;0.30;;
74851;SDS011;63400;50.650;6.832;2023-06-26T13:33:38;3.13;;;0.47;;
74851;SDS011;63400;50.650;6.832;2023-06-26T13:36:04;3.63;;;0.60;;
74851;SDS011;63400;50.650;6.832;2023-06-26T13:38:32;4.13;;;0.73;;
74851;SDS011;63400;50.650;6.832;2023-06-26T13:40:58;4.07;;;0.45;;
74851;SDS011;63400;50.650;6.832;2023-06-26T13:43:25;2.58;;;0.30;;
74851;SDS011;63400;50.650;6.832;2023-06-26T13:48:17;5.55;;;0.77;;
74851;SDS011;63400;50.650;6.832;2023-06-26T13:50:42;3.15;;;0.32;;
74851;SDS011;63400;50.650;6.832;2023-06-26T13:53:08;3.10;;;0.40;;
74851;SDS011;63400;50.650;6.832;2023-06-26T13:55:34;2.85;;;0.47;;
74851;SDS011;63400;50.650;6.832;2023-06-26T13:57:59;4.07;;;0.30;;
74851;SDS011;63400;50.650;6.832;2023-06-26T14:00:29;2.42;;;0.32;;
74851;SDS011;63400;50.650;6.832;2023-06-26T14:02:54;2.53;;;0.65;;
74851;SDS011;63400;50.650;6.832;2023-06-26T14:07:47;3.38;;;0.40;;
74851;SDS011;63400;50.650;6.832;2023-06-26T14:10:12;4.18;;;0.40;;
74851;SDS011;63400;50.650;6.832;2023-06-26T14:12:38;4.32;;;0.47;;
74851;SDS011;63400;50.650;6.832;2023-06-26T14:17:30;3.42;;;0.43;;
74851;SDS011;63400;50.650;6.832;2023-06-26T14:19:55;4.70;;;0.30;;
74851;SDS011;63400;50.650;6.832;2023-06-26T14:22:21;3.65;;;1.02;;
74851;SDS011;63400;50.650;6.832;2023-06-26T14:24:47;2.78;;;0.22;;
74851;SDS011;63400;50.650;6.832;2023-06-26T14:27:13;4.13;;;0.52;;
74851;SDS011;63400;50.650;6.832;2023-06-26T14:29:39;2.45;;;0.50;;
74851;SDS011;63400;50.650;6.832;2023-06-26T14:32:05;9.05;;;0.45;;
74851;SDS011;63400;50.650;6.832;2023-06-26T14:34:31;2.47;;;0.40;;
74851;SDS011;63400;50.650;6.832;2023-06-26T14:36:56;3.15;;;0.55;;
74851;SDS011;63400;50.650;6.832;2023-06-26T14:39:22;3.95;;;0.40;;
74851;SDS011;63400;50.650;6.832;2023-06-26T14:41:47;3.17;;;0.88;;
74851;SDS011;63400;50.650;6.832;2023-06-26T14:44:13;5.18;;;0.63;;
74851;SDS011;63400;50.650;6.832;2023-06-26T14:46:41;5.32;;;0.52;;
74851;SDS011;63400;50.650;6.832;2023-06-26T14:49:08;3.75;;;0.30;;
74851;SDS011;63400;50.650;6.832;2023-06-26T14:51:33;2.35;;;0.45;;
74851;SDS011;63400;50.650;6.832;2023-06-26T14:53:59;3.30;;;0.40;;
74851;SDS011;63400;50.650;6.832;2023-06-26T14:56:25;2.65;;;0.20;;
74851;SDS011;63400;50.650;6.832;2023-06-26T14:58:50;3.70;;;0.40;;
74851;SDS011;63400;50.650;6.832;2023-06-26T15:01:19;3.92;;;0.28;;
74851;SDS011;63400;50.650;6.832;2023-06-26T15:03:46;2.75;;;0.30;;
74851;SDS011;63400;50.650;6.832;2023-06-26T15:08:37;2.17;;;0.40;;
74851;SDS011;63400;50.650;6.832;2023-06-26T15:11:02;3.65;;;0.57;;
74851;SDS011;63400;50.650;6.832;2023-06-26T15:13:28;3.35;;;0.40;;
74851;SDS011;63400;50.650;6.832;2023-06-26T15:15:53;2.20;;;0.20;;
74851;SDS011;63400;50.650;6.832;2023-06-26T15:18:19;2.97;;;0.30;;
74851;SDS011;63400;50.650;6.832;2023-06-26T15:20:44;2.53;;;0.70;;
74851;SDS011;63400;50.650;6.832;2023-06-26T15:23:10;5.68;;;0.50;;
74851;SDS011;63400;50.650;6.832;2023-06-26T15:25:35;3.90;;;0.22;;
74851;SDS011;63400;50.650;6.832;2023-06-26T15:28:02;3.35;;;0.20;;
74851;SDS011;63400;50.650;6.832;2023-06-26T15:30:28;5.38;;;0.43;;
74851;SDS011;63400;50.650;6.832;2023-06-26T15:32:54;3.33;;;0.50;;
74851;SDS011;63400;50.650;6.832;2023-06-26T15:35:19;5.13;;;0.60;;
74851;SDS011;63400;50.650;6.832;2023-06-26T15:37:44;4.32;;;0.55;;
74851;SDS011;63400;50.650;6.832;2023-06-26T15:40:11;2.97;;;0.40;;